Accueil
METAR-TAF:

METAR-TAF

Aéroports :

Aérodrome de Koumac

Koumac, Nouvelle-Calédonie

latitude: 20-34S, longitude: 164-17E, altitude: 23 m

METAR: absent

Heure: 22:02 (11:02 UTC)

Prévision

Le bulletin a été fait il y a 6 heures et 2 minutes, à 05:00 UTC
Prévision valable du 16 à 06 UTC au 17 à 06 UTC
Vent 16 kt de sud-est
Visibilité 10 km ou plus
Nuages épars à une hauteur de 3500 ft
Nuages fragmentés à une hauteur de 5000 ft
Temporairement
du 16 à 06 UTC au 16 à 10 UTC
Visibilité: 4500 m
Nuages fragmentés à une hauteur de 800 ft
Quelques nuages à une hauteur de 2000 ft, Cumulus congestus.
averses de pluie
Temporairement
du 16 à 20 UTC au 17 à 06 UTC
Visibilité: 3000 m
Nuages fragmentés à une hauteur de 1000 ft
Quelques nuages à une hauteur de 2000 ft, Cumulonimbus.
averses de pluie

TAF: NWWK 160500Z 1606/1706 13016KT 9999 SCT035 BKN050 TEMPO 1606/1610 4500 SHRA BKN008 FEW020TCU TEMPO 1620/1706 3000 SHRA BKN010 FEW020CB

Observations et prévisions météorologiques de plus de 4000 aéroports (messages METAR et TAF).

Les stations disponibles sont représentées par des disques jaunes et rouges sur la carte.

Passer la souris dessus pour voir le nom de la station.

Cliquer dessus pour voir les observations et prévisions météorologiques.

Pour changer de carte: cliquez sur les boutons verts avec une croix noire pour zoomer, sur le bouton vert avec un tiret pour effectuer un zoom arrière, ou sur les flèches vertes pour les cartes adjacentes.


METAR-TAF: